Nearby METAR Reports

 

EGNV - Tees-Side, United Kingdom
Distance from station: W 8mi, 13km
Updated: 22/06/2017 18:20
Few Clouds
Few Clouds
 Wind from W
Wind: W 12 mph , 19 km/h
Temperature: 20°C
Dew Point: 11°C
Humidity: 56%
Barometer: 1009 hPa
Clouds: Few Clouds
Visibility: 6 miles , 10 km
Cloud details: Few Clouds 1067 m
2017/06/22 17:20 EGNV 221720Z 27010KT 240V300 9999 FEW035 20/11 Q1009
EGXE - Leeming Raf, United Kingdom
Distance from station: SW 21mi, 34km
Updated: 22/06/2017 18:50
Clear
Clear
 Wind from W
Wind: W 13 mph , 20 km/h
Temperature: 19°C
Dew Point: 9°C
Humidity: 52%
Barometer: 1010 hPa
Clouds: Clear
Visibility: 6 miles , 10 km
2017/06/22 17:50 EGXE 221750Z AUTO 26011KT 9999 NCD 19/09 Q1010
 
EGXZ - Topcliffe Raf, United Kingdom
Distance from station: SSW 24mi, 38km
Updated: 22/06/2017 18:50
Clear
Clear
 Wind from W
Wind: W 14 mph , 22 km/h
Temperature: 19°C
Dew Point: 11°C
Humidity: 60%
Barometer: 1010 hPa
Clouds: Clear
Visibility: 6 miles , 10 km
2017/06/22 17:50 EGXZ 221750Z AUTO 27012KT 9999 NCD 19/11 Q1010
EGXD - Dishforth Raf, United Kingdom
Distance from station: SSW 29mi, 46km
Updated: 06/06/2016 10:50
NOT Current
Clear
Clear
 Wind from SSE
Wind: SSE 5 mph , 7 km/h
Temperature: 18°C
Dew Point: 11°C
Humidity: 64%
Barometer: 1023 hPa
Clouds: Clear
Visibility: 6 miles , 10 km
2016/06/06 09:50 EGXD 060950Z AUTO 16004KT 9999 // NCD 18/11 Q1023
 
EGXU - Linton-On-Ouse R, United Kingdom
Distance from station: S 33mi, 53km
Updated: 22/06/2017 18:50
Clear
Clear
 Wind from W
Wind: W 13 mph , 20 km/h
Temperature: 19°C
Dew Point: 10°C
Humidity: 56%
Barometer: 1010 hPa
Clouds: Clear
Visibility: 6 miles , 10 km
2017/06/22 17:50 EGXU 221750Z AUTO 27011KT 9999 // NCD 19/10 Q1010
EGNT - Newcastle, United Kingdom
Distance from station: NNW 39mi, 63km
Updated: 22/06/2017 18:50
Partly cloudy
Partly cloudy
 Wind from varies
Wind: varies 3 mph , 6 km/h
Temperature: 17°C
Dew Point: 14°C
Humidity: 83%
Barometer: 1009 hPa
Clouds: Partly cloudy
Visibility: 6 miles , 10 km
Cloud details: Partly cloudy 853 m
2017/06/22 17:50 EGNT 221750Z VRB03KT 9999 SCT028 17/14 Q1009
 
EGNM - Leeds And Bradfo, United Kingdom
Distance from station: SSW 49mi, 79km
Updated: 22/06/2017 18:50
Few Clouds
Few Clouds
 Wind from W
Wind: W 23 mph , 37 km/h
Temperature: 16°C
Dew Point: 10°C
Humidity: 68%
Barometer: 1011 hPa
Clouds: Few Clouds
Visibility: 6 miles , 10 km
Cloud details: Few Clouds 610 m
2017/06/22 17:50 EGNM 221750Z 27020KT 190V350 9999 FEW020 16/10 Q1011